createdAt,value
2019-06-27T00:01:48.135Z,92.20
2019-06-27T00:04:16.643Z,92.10
2019-06-27T00:06:45.100Z,92.10
2019-06-27T00:09:13.719Z,91.90
2019-06-27T00:11:42.234Z,91.70
2019-06-27T00:14:10.680Z,92.30
2019-06-27T00:16:39.185Z,92.30
2019-06-27T00:19:07.643Z,92.10
2019-06-27T00:21:36.154Z,92.10
2019-06-27T00:24:04.708Z,92.30
2019-06-27T00:26:33.238Z,92.20
2019-06-27T00:29:01.762Z,92.10
2019-06-27T00:31:30.221Z,92.10
2019-06-27T00:33:59.413Z,91.90
2019-06-27T00:36:28.135Z,91.90
2019-06-27T00:38:56.576Z,92.00
2019-06-27T00:41:25.133Z,92.10
2019-06-27T00:43:53.555Z,91.90
2019-06-27T00:46:22.020Z,92.10
2019-06-27T00:48:50.447Z,92.10
2019-06-27T00:51:18.900Z,91.90
2019-06-27T00:53:47.352Z,91.70
2019-06-27T00:56:15.782Z,91.60
2019-06-27T00:58:44.236Z,91.60
2019-06-27T01:01:12.967Z,91.50
2019-06-27T01:03:41.497Z,91.40
2019-06-27T01:06:09.921Z,91.90
2019-06-27T01:08:38.451Z,92.00
2019-06-27T01:11:07.027Z,92.30
2019-06-27T01:13:35.483Z,92.30
2019-06-27T01:16:04.091Z,92.30
2019-06-27T01:18:32.540Z,92.10
2019-06-27T01:21:01.065Z,92.00
2019-06-27T01:23:29.729Z,91.80
2019-06-27T01:25:58.236Z,92.10
2019-06-27T01:28:26.683Z,92.20
2019-06-27T01:30:56.881Z,92.40
2019-06-27T01:33:25.333Z,92.30
2019-06-27T01:35:53.763Z,92.30
2019-06-27T01:38:22.217Z,92.40
2019-06-27T01:40:51.445Z,92.20
2019-06-27T01:43:19.914Z,92.10
2019-06-27T01:45:56.214Z,91.90
2019-06-27T01:48:24.809Z,91.80
2019-06-27T01:50:53.412Z,92.20
2019-06-27T01:53:21.864Z,92.30
2019-06-27T01:55:50.299Z,92.40
2019-06-27T01:58:18.762Z,92.50
2019-06-27T02:00:47.264Z,92.50
2019-06-27T02:03:15.967Z,92.50
2019-06-27T02:05:44.475Z,92.50
2019-06-27T02:08:12.923Z,92.60
2019-06-27T02:10:42.023Z,92.60
2019-06-27T02:13:10.452Z,92.70
2019-06-27T02:15:38.975Z,92.60
2019-06-27T02:18:07.476Z,92.50
2019-06-27T02:20:36.005Z,92.30
2019-06-27T02:23:04.458Z,92.30
2019-06-27T02:25:32.908Z,92.40
2019-06-27T02:28:04.216Z,92.40
2019-06-27T02:30:40.128Z,92.50
2019-06-27T02:33:09.860Z,92.70
2019-06-27T02:35:38.380Z,92.80
2019-06-27T02:38:07.182Z,92.70
2019-06-27T02:40:37.249Z,92.60
2019-06-27T02:43:05.904Z,92.50
2019-06-27T02:45:34.360Z,92.50
2019-06-27T02:48:02.797Z,92.40
2019-06-27T02:50:31.400Z,92.60
2019-06-27T02:52:59.906Z,92.60
2019-06-27T02:55:28.716Z,92.60
2019-06-27T02:57:57.445Z,92.70
2019-06-27T03:00:25.911Z,92.80
2019-06-27T03:02:54.431Z,92.80
2019-06-27T03:05:23.013Z,92.80
2019-06-27T03:07:51.581Z,92.90
2019-06-27T03:10:20.477Z,92.80
2019-06-27T03:12:48.927Z,92.90
2019-06-27T03:15:19.072Z,92.90
2019-06-27T03:17:47.624Z,92.80
2019-06-27T03:20:18.381Z,92.80
2019-06-27T03:22:46.794Z,92.80
2019-06-27T03:25:15.246Z,92.80
2019-06-27T03:27:43.685Z,92.80
2019-06-27T03:30:12.783Z,92.80
2019-06-27T03:32:41.288Z,92.80
2019-06-27T03:35:10.084Z,92.80
2019-06-27T03:37:38.582Z,92.80
2019-06-27T03:40:08.054Z,92.70
2019-06-27T03:42:36.512Z,92.70
2019-06-27T03:45:07.164Z,92.80
2019-06-27T03:47:35.607Z,92.80
2019-06-27T03:50:07.989Z,92.70
2019-06-27T03:52:36.453Z,92.80
2019-06-27T03:55:05.626Z,92.90
2019-06-27T03:57:34.082Z,92.90
2019-06-27T04:00:02.807Z,92.90
2019-06-27T04:02:31.255Z,93.00
2019-06-27T04:04:59.692Z,93.00
2019-06-27T04:07:28.149Z,93.10
2019-06-27T04:09:56.603Z,93.10
2019-06-27T04:12:26.656Z,93.10
2019-06-27T04:14:55.088Z,93.10
2019-06-27T04:17:25.080Z,93.10
2019-06-27T04:19:53.673Z,93.10
2019-06-27T04:22:22.117Z,93.10
2019-06-27T04:24:50.560Z,93.10
2019-06-27T04:27:19.002Z,93.10
2019-06-27T04:29:47.508Z,93.10
2019-06-27T04:32:16.023Z,93.10
2019-06-27T04:34:44.492Z,93.10
2019-06-27T04:37:12.945Z,93.10
2019-06-27T04:39:41.396Z,93.10
2019-06-27T04:42:09.858Z,93.20
2019-06-27T04:44:38.333Z,93.20
2019-06-27T04:47:06.780Z,93.10
2019-06-27T04:49:35.241Z,93.10
2019-06-27T04:52:03.707Z,93.00
2019-06-27T04:54:32.231Z,92.90
2019-06-27T04:57:00.664Z,92.90
2019-06-27T04:59:30.857Z,92.60
2019-06-27T05:01:59.362Z,92.50
2019-06-27T05:04:30.788Z,92.40
2019-06-27T05:06:59.244Z,92.10
2019-06-27T05:09:27.697Z,92.10
2019-06-27T05:11:56.195Z,92.10
2019-06-27T05:14:24.665Z,92.30
2019-06-27T05:16:53.074Z,92.40
2019-06-27T05:19:21.540Z,92.30
2019-06-27T05:21:49.969Z,91.80
2019-06-27T05:24:18.436Z,91.30
2019-06-27T05:26:47.097Z,90.70
2019-06-27T05:29:15.548Z,89.50
2019-06-27T05:31:44.184Z,89.10
2019-06-27T05:34:12.643Z,88.10
2019-06-27T05:36:41.081Z,87.60
2019-06-27T05:39:09.527Z,87.10
2019-06-27T05:41:38.013Z,87.60
2019-06-27T05:44:06.479Z,87.20
2019-06-27T05:46:34.908Z,86.60
2019-06-27T05:49:03.358Z,83.20
2019-06-27T05:51:31.787Z,80.60
2019-06-27T05:54:00.221Z,77.20
2019-06-27T05:56:28.663Z,77.50
2019-06-27T05:58:57.095Z,76.80
2019-06-27T06:01:25.632Z,77.20
2019-06-27T06:03:54.068Z,74.50
2019-06-27T06:06:22.585Z,72.40
2019-06-27T06:08:51.079Z,72.80
2019-06-27T06:11:19.731Z,72.80
2019-06-27T06:13:48.155Z,72.10
2019-06-27T06:16:16.601Z,70.20
2019-06-27T06:18:45.032Z,67.20
2019-06-27T06:21:13.487Z,67.00
2019-06-27T06:23:43.247Z,64.50
2019-06-27T06:26:11.693Z,64.40
2019-06-27T06:28:40.140Z,62.70
2019-06-27T06:31:08.710Z,63.70
2019-06-27T06:33:37.143Z,62.20
2019-06-27T06:36:05.682Z,62.10
2019-06-27T06:38:34.178Z,61.40
2019-06-27T06:41:02.781Z,61.60
2019-06-27T06:43:31.221Z,61.60
2019-06-27T06:45:59.671Z,60.60
2019-06-27T06:48:28.113Z,61.30
2019-06-27T06:50:56.559Z,61.40
2019-06-27T06:53:44.332Z,61.20
2019-06-27T06:56:12.778Z,60.80
2019-06-27T06:58:41.482Z,60.90
2019-06-27T07:01:10.184Z,60.80
2019-06-27T07:03:38.633Z,60.00
2019-06-27T07:06:07.120Z,60.20
2019-06-27T07:08:35.572Z,59.20
2019-06-27T07:11:04.007Z,60.00
2019-06-27T07:13:32.481Z,58.60
2019-06-27T07:16:00.911Z,60.10
2019-06-27T07:18:29.374Z,60.30
2019-06-27T07:20:57.875Z,59.90
2019-06-27T07:23:26.368Z,60.30
2019-06-27T07:25:54.904Z,60.00
2019-06-27T07:28:23.354Z,60.30
2019-06-27T07:30:51.792Z,59.50
2019-06-27T07:33:20.320Z,59.60
2019-06-27T07:35:48.750Z,59.90
2019-06-27T07:38:17.215Z,59.00
2019-06-27T07:40:45.721Z,58.80
2019-06-27T07:43:15.814Z,59.60
2019-06-27T07:45:44.250Z,59.80
2019-06-27T07:48:12.702Z,59.60
2019-06-27T07:50:41.149Z,59.40
2019-06-27T07:53:09.597Z,59.40
2019-06-27T07:55:38.032Z,60.00
2019-06-27T07:58:06.510Z,59.10
2019-06-27T08:00:35.020Z,58.70
2019-06-27T08:03:04.073Z,59.10
2019-06-27T08:05:32.647Z,59.30
2019-06-27T08:08:01.103Z,58.70
2019-06-27T08:10:29.524Z,59.10
2019-06-27T08:12:57.972Z,58.40
2019-06-27T08:15:26.427Z,58.20
2019-06-27T08:17:54.936Z,58.90
2019-06-27T08:20:23.512Z,58.10
2019-06-27T08:22:52.095Z,57.80
2019-06-27T08:25:20.670Z,57.90
2019-06-27T08:27:49.244Z,57.60
2019-06-27T08:30:17.923Z,57.60
2019-06-27T08:32:46.372Z,57.50
2019-06-27T08:35:15.118Z,57.60
2019-06-27T08:37:45.119Z,58.20
2019-06-27T08:40:14.323Z,58.00
2019-06-27T08:42:44.191Z,59.00
2019-06-27T08:45:14.686Z,57.90
2019-06-27T08:47:43.330Z,58.00
2019-06-27T08:50:12.127Z,58.70
2019-06-27T08:52:40.551Z,58.70
2019-06-27T08:55:09.070Z,57.60
2019-06-27T08:57:37.548Z,57.10
2019-06-27T09:00:08.146Z,57.20
2019-06-27T09:02:36.662Z,58.30
2019-06-27T09:05:07.129Z,57.90
2019-06-27T09:07:35.664Z,57.10
2019-06-27T09:10:05.697Z,58.60
2019-06-27T09:12:34.132Z,59.20
2019-06-27T09:15:02.919Z,57.90
2019-06-27T09:17:31.362Z,56.70
2019-06-27T09:19:59.815Z,58.90
2019-06-27T09:22:28.236Z,57.70
2019-06-27T09:24:56.726Z,57.50
2019-06-27T09:27:25.218Z,58.60
2019-06-27T09:29:53.861Z,58.10
2019-06-27T09:32:25.957Z,59.10
2019-06-27T09:34:52.604Z,57.90
2019-06-27T09:37:21.514Z,58.30
2019-06-27T09:39:50.125Z,57.80
2019-06-27T09:42:18.544Z,56.40
2019-06-27T09:44:46.974Z,57.60
2019-06-27T09:47:15.438Z,58.40
2019-06-27T09:49:45.524Z,57.70
2019-06-27T09:52:14.092Z,58.00
2019-06-27T09:54:42.715Z,58.30
2019-06-27T09:57:11.227Z,57.80
2019-06-27T09:59:39.659Z,57.20
2019-06-27T10:02:08.271Z,57.80
2019-06-27T10:04:36.714Z,57.70
2019-06-27T10:07:05.359Z,57.30
2019-06-27T10:09:33.810Z,56.20
2019-06-27T10:12:02.474Z,57.60
2019-06-27T10:14:30.914Z,57.40
2019-06-27T10:16:59.435Z,57.30
2019-06-27T10:19:27.863Z,56.90
2019-06-27T10:21:56.309Z,58.40
2019-06-27T10:24:24.880Z,57.10
2019-06-27T10:26:53.391Z,57.70
2019-06-27T10:29:21.884Z,57.90
2019-06-27T10:31:50.403Z,56.80
2019-06-27T10:34:18.941Z,57.00
2019-06-27T10:36:47.547Z,56.90
2019-06-27T10:39:15.996Z,57.50
2019-06-27T10:41:44.546Z,57.40
2019-06-27T10:44:13.088Z,57.70
2019-06-27T10:46:43.062Z,56.60
2019-06-27T10:49:11.620Z,57.80
2019-06-27T10:51:40.186Z,56.80
2019-06-27T10:54:09.004Z,56.60
2019-06-27T10:56:40.060Z,57.60
2019-06-27T10:59:07.788Z,56.90
2019-06-27T11:01:36.295Z,58.20
2019-06-27T11:04:06.284Z,57.40
2019-06-27T11:06:34.792Z,57.60
2019-06-27T11:09:04.193Z,57.80
2019-06-27T11:11:32.757Z,56.90
2019-06-27T11:14:01.266Z,56.70
2019-06-27T11:16:29.723Z,56.40
2019-06-27T11:18:59.305Z,57.20
2019-06-27T11:21:27.754Z,56.40
2019-06-27T11:23:56.369Z,57.50
2019-06-27T11:26:24.804Z,56.40
2019-06-27T11:28:53.247Z,56.70
2019-06-27T11:31:21.688Z,57.50
2019-06-27T11:33:50.127Z,55.80
2019-06-27T11:36:18.584Z,56.30
2019-06-27T11:38:47.392Z,57.00
2019-06-27T11:41:15.961Z,57.10
2019-06-27T11:43:44.430Z,58.20
2019-06-27T11:46:12.943Z,57.10
2019-06-27T11:48:41.419Z,56.90
2019-06-27T11:51:10.046Z,57.20
2019-06-27T11:53:38.495Z,56.30
2019-06-27T11:56:08.020Z,55.40
2019-06-27T11:58:36.503Z,57.00
2019-06-27T12:01:05.096Z,57.00
2019-06-27T12:03:48.399Z,56.00
2019-06-27T12:06:03.925Z,54.90
2019-06-27T12:08:32.355Z,55.80
2019-06-27T12:11:00.909Z,55.70
2019-06-27T12:13:29.480Z,55.90
2019-06-27T12:15:58.898Z,55.00
2019-06-27T12:18:27.334Z,55.50
2019-06-27T12:20:55.787Z,54.70
2019-06-27T12:23:24.213Z,54.20
2019-06-27T12:25:52.668Z,54.50
2019-06-27T12:28:22.650Z,53.90
2019-06-27T12:30:51.178Z,53.90
2019-06-27T12:33:19.735Z,54.50
2019-06-27T12:35:48.209Z,53.90
2019-06-27T12:38:16.688Z,54.40
2019-06-27T12:40:45.130Z,55.10
2019-06-27T12:43:14.640Z,55.30
2019-06-27T12:45:43.299Z,54.00
2019-06-27T12:48:11.828Z,55.60
2019-06-27T12:50:40.408Z,53.80
2019-06-27T12:53:08.865Z,55.80
2019-06-27T12:55:37.376Z,53.70
2019-06-27T12:58:05.892Z,53.70
2019-06-27T13:00:34.411Z,54.50
2019-06-27T13:03:02.852Z,55.30
2019-06-27T13:05:31.320Z,54.80
2019-06-27T13:07:59.738Z,54.20
2019-06-27T13:10:35.706Z,53.30
2019-06-27T13:13:06.651Z,54.70
2019-06-27T13:15:35.296Z,54.10
2019-06-27T13:18:03.761Z,54.60
2019-06-27T13:20:33.783Z,54.90
2019-06-27T13:23:02.239Z,53.60
2019-06-27T13:25:34.276Z,54.60
2019-06-27T13:28:02.428Z,54.90
2019-06-27T13:30:30.947Z,54.90
2019-06-27T13:32:59.414Z,54.60
2019-06-27T13:35:29.624Z,54.30
2019-06-27T13:37:58.089Z,54.10
2019-06-27T13:40:26.577Z,54.70
2019-06-27T13:42:55.768Z,53.80
2019-06-27T13:45:26.648Z,54.80
2019-06-27T13:47:54.659Z,54.10
2019-06-27T13:50:23.213Z,55.10
2019-06-27T13:52:54.627Z,54.20
2019-06-27T13:55:24.223Z,54.20
2019-06-27T13:57:52.585Z,52.70
2019-06-27T14:00:29.903Z,54.10
2019-06-27T14:02:58.373Z,53.70
2019-06-27T14:05:26.795Z,54.60
2019-06-27T14:07:55.251Z,54.10
2019-06-27T14:10:23.696Z,54.20
2019-06-27T14:12:52.225Z,54.80
2019-06-27T14:15:22.190Z,54.10
2019-06-27T14:17:50.899Z,54.70
2019-06-27T14:20:19.400Z,55.10
2019-06-27T14:22:47.831Z,54.40
2019-06-27T14:25:16.519Z,54.30
2019-06-27T14:27:44.958Z,54.60
2019-06-27T14:30:13.892Z,53.90
2019-06-27T14:32:42.427Z,54.10
2019-06-27T14:35:15.818Z,54.20
2019-06-27T14:37:42.127Z,53.90
2019-06-27T14:40:11.220Z,54.40
2019-06-27T14:42:39.695Z,53.70
2019-06-27T14:45:08.606Z,53.60
2019-06-27T14:47:37.076Z,53.30
2019-06-27T14:50:08.844Z,54.70
2019-06-27T14:52:37.304Z,53.90
2019-06-27T14:55:07.259Z,53.10
2019-06-27T14:57:35.943Z,53.50
2019-06-27T15:00:06.850Z,53.50
2019-06-27T15:02:35.263Z,53.30
2019-06-27T15:05:04.758Z,53.50
2019-06-27T15:07:33.254Z,52.90
2019-06-27T15:10:01.921Z,52.10
2019-06-27T15:12:34.819Z,51.60
2019-06-27T15:15:02.040Z,51.40
2019-06-27T15:17:32.160Z,52.40
2019-06-27T15:20:00.595Z,51.90
2019-06-27T15:22:29.104Z,52.40
2019-06-27T15:24:57.686Z,51.60
2019-06-27T15:27:26.135Z,51.50
2019-06-27T15:29:54.563Z,50.90
2019-06-27T15:32:23.010Z,50.70
2019-06-27T15:34:51.430Z,50.70
2019-06-27T15:37:21.803Z,50.70
2019-06-27T15:39:50.222Z,50.20
2019-06-27T15:42:18.692Z,50.90
2019-06-27T15:44:47.183Z,50.70
2019-06-27T15:47:15.798Z,51.00
2019-06-27T15:49:45.224Z,51.00
2019-06-27T15:52:13.746Z,50.60
2019-06-27T15:54:42.174Z,50.20
2019-06-27T15:57:10.679Z,50.20
2019-06-27T15:59:39.114Z,49.50
2019-06-27T16:02:07.626Z,50.00
2019-06-27T16:04:36.056Z,50.00
2019-06-27T16:07:04.703Z,49.20
2019-06-27T16:09:33.150Z,49.70
2019-06-27T16:12:01.671Z,49.10
2019-06-27T16:14:30.218Z,49.30
2019-06-27T16:16:58.728Z,49.10
2019-06-27T16:19:27.154Z,49.40
2019-06-27T16:21:55.962Z,49.40
2019-06-27T16:24:24.450Z,49.30
2019-06-27T16:26:53.021Z,50.10
2019-06-27T16:29:21.471Z,49.40
2019-06-27T16:31:49.964Z,48.90
2019-06-27T16:34:18.393Z,49.30
2019-06-27T16:36:46.907Z,48.70
2019-06-27T16:39:15.347Z,48.90
2019-06-27T16:41:44.056Z,49.40
2019-06-27T16:44:12.494Z,49.10
2019-06-27T16:46:40.931Z,49.30
2019-06-27T16:49:09.386Z,50.20
2019-06-27T16:51:37.841Z,50.00
2019-06-27T16:54:06.434Z,49.50
2019-06-27T16:56:34.857Z,49.80
2019-06-27T16:59:03.371Z,50.20
2019-06-27T17:01:31.837Z,50.10
2019-06-27T17:04:00.323Z,49.70
2019-06-27T17:06:41.280Z,50.40
2019-06-27T17:08:59.106Z,49.50
2019-06-27T17:11:27.527Z,49.60
2019-06-27T17:13:55.991Z,49.80
2019-06-27T17:16:24.466Z,49.80
2019-06-27T17:18:52.931Z,49.40
2019-06-27T17:21:21.409Z,49.20
2019-06-27T17:23:49.922Z,48.80
2019-06-27T17:26:18.358Z,49.10
2019-06-27T17:28:46.789Z,48.80
2019-06-27T17:31:15.317Z,49.00
2019-06-27T17:33:43.768Z,49.50
2019-06-27T17:36:12.199Z,49.60
2019-06-27T17:38:40.631Z,49.70
2019-06-27T17:41:09.151Z,48.50
2019-06-27T17:43:39.250Z,48.70
2019-06-27T17:46:08.011Z,48.50
2019-06-27T17:48:36.434Z,48.70
2019-06-27T17:51:07.835Z,48.50
2019-06-27T17:53:36.899Z,47.90
2019-06-27T17:56:05.411Z,47.80
2019-06-27T17:58:33.962Z,47.80
2019-06-27T18:01:02.547Z,47.50
2019-06-27T18:03:31.026Z,47.30
2019-06-27T18:05:59.490Z,45.80
2019-06-27T18:08:27.925Z,46.10
2019-06-27T18:10:56.366Z,45.10
2019-06-27T18:13:24.779Z,44.30
2019-06-27T18:15:53.245Z,44.20
2019-06-27T18:18:21.663Z,44.90
2019-06-27T18:20:50.486Z,44.90
2019-06-27T18:23:18.913Z,44.00
2019-06-27T18:25:48.976Z,43.70
2019-06-27T18:28:17.410Z,43.10
2019-06-27T18:30:45.869Z,42.90
2019-06-27T18:33:14.303Z,43.40
2019-06-27T18:35:43.032Z,43.90
2019-06-27T18:38:11.994Z,43.20
2019-06-27T18:40:42.075Z,42.70
2019-06-27T18:43:10.510Z,42.70
2019-06-27T18:45:38.970Z,42.80
2019-06-27T18:48:07.475Z,41.00
2019-06-27T18:50:36.005Z,42.00
2019-06-27T18:53:06.494Z,40.80
2019-06-27T18:55:36.596Z,40.60
2019-06-27T18:58:05.117Z,40.70
2019-06-27T19:00:33.572Z,40.90
2019-06-27T19:03:02.069Z,40.00
2019-06-27T19:05:30.496Z,40.50
2019-06-27T19:08:00.659Z,41.00
2019-06-27T19:10:29.100Z,40.60
2019-06-27T19:12:57.602Z,41.30
2019-06-27T19:15:26.102Z,40.50
2019-06-27T19:17:54.530Z,40.80
2019-06-27T19:20:36.400Z,40.20
2019-06-27T19:23:06.497Z,39.20
2019-06-27T19:25:36.583Z,38.60
2019-06-27T19:28:05.243Z,37.10
2019-06-27T19:30:35.191Z,37.10
2019-06-27T19:33:03.748Z,36.30
2019-06-27T19:35:32.306Z,35.90
2019-06-27T19:38:02.731Z,36.00
2019-06-27T19:40:31.000Z,35.50
2019-06-27T19:42:59.455Z,35.20
2019-06-27T19:45:28.038Z,34.70
2019-06-27T19:47:56.553Z,35.30
2019-06-27T19:50:24.967Z,35.00
2019-06-27T19:52:53.487Z,34.90
2019-06-27T19:55:22.002Z,34.90
2019-06-27T19:57:50.629Z,35.10
2019-06-27T20:00:19.241Z,35.20
2019-06-27T20:02:49.279Z,34.90
2019-06-27T20:05:17.764Z,35.40
2019-06-27T20:07:46.281Z,35.80
2019-06-27T20:10:15.236Z,36.00
2019-06-27T20:12:43.691Z,36.80
2019-06-27T20:15:12.675Z,37.20
2019-06-27T20:17:41.155Z,38.20
2019-06-27T20:20:09.952Z,37.80
2019-06-27T20:22:38.393Z,38.20
2019-06-27T20:25:07.641Z,38.10
2019-06-27T20:27:36.072Z,37.80
2019-06-27T20:30:07.578Z,38.50
2019-06-27T20:32:36.098Z,38.70
2019-06-27T20:35:06.742Z,38.90
2019-06-27T20:37:35.250Z,38.30
2019-06-27T20:40:08.213Z,38.90
2019-06-27T20:42:36.638Z,38.30
2019-06-27T20:45:08.697Z,38.00
2019-06-27T20:47:37.196Z,38.10
2019-06-27T20:50:06.635Z,38.50
2019-06-27T20:52:35.238Z,38.60
2019-06-27T20:55:04.259Z,38.90
2019-06-27T20:57:32.683Z,38.40
2019-06-27T21:00:01.142Z,38.00
2019-06-27T21:02:29.568Z,38.10
2019-06-27T21:04:58.032Z,37.70
2019-06-27T21:07:26.469Z,37.30
2019-06-27T21:09:55.047Z,37.30
2019-06-27T21:12:25.252Z,37.50
2019-06-27T21:14:53.775Z,37.80
2019-06-27T21:17:22.201Z,37.80
2019-06-27T21:19:50.715Z,37.70
2019-06-27T21:22:19.309Z,37.50
2019-06-27T21:24:47.911Z,37.20
2019-06-27T21:27:17.099Z,37.10
2019-06-27T21:29:45.621Z,37.50
2019-06-27T21:32:30.171Z,38.00
2019-06-27T21:34:44.331Z,38.50
2019-06-27T21:37:12.776Z,39.30
2019-06-27T21:39:41.195Z,39.00
2019-06-27T21:42:09.660Z,38.90
2019-06-27T21:44:38.135Z,39.60
2019-06-27T21:47:06.573Z,37.90
2019-06-27T21:49:35.084Z,37.70
2019-06-27T21:52:05.064Z,37.20
2019-06-27T21:54:33.507Z,37.80
2019-06-27T21:57:02.020Z,37.90
2019-06-27T21:59:30.457Z,37.50
2019-06-27T22:01:58.993Z,38.40
2019-06-27T22:04:30.492Z,38.90
2019-06-27T22:06:57.839Z,39.20
2019-06-27T22:09:26.496Z,39.50
2019-06-27T22:11:55.241Z,38.80
2019-06-27T22:14:23.698Z,39.90
2019-06-27T22:16:52.191Z,39.80
2019-06-27T22:19:20.611Z,41.20
2019-06-27T22:21:49.083Z,43.10
2019-06-27T22:24:17.550Z,42.90
2019-06-27T22:26:47.322Z,43.00
2019-06-27T22:29:15.777Z,43.00
2019-06-27T22:31:44.283Z,44.30
2019-06-27T22:34:12.696Z,43.60
2019-06-27T22:36:41.117Z,44.40
2019-06-27T22:39:39.911Z,44.50
2019-06-27T22:42:16.259Z,44.70
2019-06-27T22:45:02.459Z,46.20
2019-06-27T22:47:49.635Z,44.70
2019-06-27T22:50:21.936Z,43.50
2019-06-27T22:53:07.330Z,43.70
2019-06-27T22:55:35.950Z,44.50
2019-06-27T22:58:04.400Z,44.20
2019-06-27T23:00:32.911Z,43.40
2019-06-27T23:03:01.435Z,43.10
2019-06-27T23:05:29.924Z,42.70
2019-06-27T23:08:00.180Z,43.10
2019-06-27T23:10:28.639Z,42.60
2019-06-27T23:12:57.094Z,41.00
2019-06-27T23:15:27.115Z,42.10
2019-06-27T23:17:58.598Z,41.90
2019-06-27T23:20:27.270Z,42.80
2019-06-27T23:22:55.806Z,43.60
2019-06-27T23:25:26.977Z,42.60
2019-06-27T23:27:55.492Z,43.40
2019-06-27T23:30:24.003Z,42.60
2019-06-27T23:32:52.546Z,41.50
2019-06-27T23:35:20.982Z,40.60
2019-06-27T23:37:49.403Z,39.40
2019-06-27T23:40:18.100Z,37.70
2019-06-27T23:42:46.513Z,38.90
2019-06-27T23:45:15.032Z,39.70
2019-06-27T23:47:43.464Z,40.30
2019-06-27T23:50:12.235Z,39.80
2019-06-27T23:52:40.673Z,41.30
2019-06-27T23:55:10.721Z,42.70
2019-06-27T23:57:39.215Z,43.70
